Time;durP1;ratioP1;P1;durP2;ratioP2;P2;SDS_P1;SDS_P2;PMS_P1;PMS_P2;Temp;Humidity;BMP_temperature;BMP_pressure;BME280_temperature;BME280_humidity;BME280_pressure;Samples;Min_cycle;Max_cycle;Signal;HPM_P1;HPM_P2
2021/07/05 00:00:17;;;;;;;3.58;2.42;;;16.00;99.90;;;;;;5031979;28;20025;-54
2021/07/05 00:02:43;;;;;;;5.03;2.10;;;16.10;99.90;;;;;;5031575;28;20045;-54
2021/07/05 00:05:11;;;;;;;4.70;2.13;;;16.00;99.90;;;;;;5031649;28;20064;-54
2021/07/05 00:07:37;;;;;;;8.23;2.40;;;16.00;99.90;;;;;;5031341;28;20516;-54
2021/07/05 00:10:05;;;;;;;6.53;2.17;;;16.00;99.90;;;;;;5031356;28;20033;-54
2021/07/05 00:12:31;;;;;;;6.65;2.53;;;16.00;99.90;;;;;;5030146;28;20128;-54
2021/07/05 00:14:57;;;;;;;6.45;2.03;;;16.00;99.90;;;;;;5031320;28;20109;-54
2021/07/05 00:17:22;;;;;;;7.13;2.17;;;16.00;99.90;;;;;;5031354;28;20335;-54
2021/07/05 00:19:48;;;;;;;10.52;2.78;;;16.00;99.90;;;;;;5031316;28;20083;-54
2021/07/05 00:22:13;;;;;;;8.73;2.70;;;16.00;99.90;;;;;;5031320;28;20064;-54
2021/07/05 00:24:39;;;;;;;9.77;2.33;;;16.00;99.90;;;;;;5031305;28;20060;-54
2021/07/05 00:27:05;;;;;;;5.88;2.17;;;16.00;99.90;;;;;;5030099;28;20029;-54
2021/07/05 00:29:30;;;;;;;9.20;2.13;;;16.00;99.90;;;;;;5031087;28;20083;-54
2021/07/05 00:31:56;;;;;;;7.75;2.55;;;16.00;99.90;;;;;;5030900;28;20053;-54
2021/07/05 00:34:22;;;;;;;6.22;2.25;;;15.90;99.90;;;;;;5031264;28;20656;-54
2021/07/05 00:36:47;;;;;;;7.60;2.78;;;15.90;99.90;;;;;;5029990;28;20116;-54
2021/07/05 00:39:13;;;;;;;11.68;2.63;;;15.90;99.90;;;;;;5031321;28;20534;-53
2021/07/05 00:41:39;;;;;;;9.20;2.90;;;15.80;99.90;;;;;;5031157;28;20072;-53
2021/07/05 00:44:05;;;;;;;4.38;2.47;;;15.80;99.90;;;;;;5031090;28;20037;-54
2021/07/05 00:46:30;;;;;;;7.25;2.50;;;15.80;99.90;;;;;;5029754;28;20029;-53
2021/07/05 00:48:56;;;;;;;9.18;2.25;;;15.70;99.90;;;;;;5029813;28;20025;-53
2021/07/05 00:51:23;;;;;;;10.70;2.60;;;15.70;99.90;;;;;;5029761;28;20382;-53
2021/07/05 00:53:50;;;;;;;10.20;3.05;;;15.70;99.90;;;;;;5031140;28;20496;-53
2021/07/05 00:56:17;;;;;;;6.20;2.67;;;15.70;99.90;;;;;;5030894;28;20030;-53
2021/07/05 00:58:43;;;;;;;4.75;2.53;;;15.80;99.90;;;;;;5034004;28;20017;-54
2021/07/05 01:01:09;;;;;;;3.58;2.30;;;15.80;99.90;;;;;;5035067;28;20021;-54
2021/07/05 01:03:35;;;;;;;5.80;2.65;;;15.70;99.90;;;;;;5034952;28;20025;-53
2021/07/05 01:06:01;;;;;;;11.65;2.90;;;15.80;99.90;;;;;;5034967;28;20033;-53
2021/07/05 01:08:27;;;;;;;8.20;2.38;;;15.70;99.90;;;;;;5034790;28;20083;-53
2021/07/05 01:10:53;;;;;;;9.27;3.33;;;15.60;99.90;;;;;;5034689;28;20547;-53
2021/07/05 01:13:19;;;;;;;7.60;3.00;;;15.50;99.90;;;;;;5033572;28;20034;-53
2021/07/05 01:15:45;;;;;;;5.82;2.53;;;15.50;99.90;;;;;;5034527;28;20106;-53
2021/07/05 01:18:11;;;;;;;5.75;2.45;;;15.50;99.90;;;;;;5035018;28;20426;-54
2021/07/05 01:20:39;;;;;;;5.35;2.80;;;15.50;99.90;;;;;;5034581;28;20033;-53
2021/07/05 01:23:08;;;;;;;5.13;2.50;;;15.50;99.90;;;;;;5034548;28;20437;-53
2021/07/05 01:25:34;;;;;;;7.55;3.10;;;15.50;99.90;;;;;;5034395;28;20029;-53
2021/07/05 01:28:00;;;;;;;9.43;3.10;;;15.50;99.90;;;;;;5034448;28;20052;-54
2021/07/05 01:30:27;;;;;;;8.68;2.95;;;15.40;99.90;;;;;;5034775;28;20021;-54
2021/07/05 01:33:00;;;;;;;7.68;2.70;;;15.30;99.90;;;;;;5034179;28;20053;-53
2021/07/05 01:35:26;;;;;;;;;;;15.30;99.90;;;;;;5034760;28;20490;-53
2021/07/05 01:37:51;;;;;;;11.00;2.72;;;15.30;99.90;;;;;;5034401;28;19919;-54
2021/07/05 01:40:18;;;;;;;8.25;2.42;;;15.30;99.90;;;;;;5032881;28;20080;-54
2021/07/05 01:42:54;;;;;;;8.82;2.85;;;15.30;99.90;;;;;;5034217;28;20025;-54
2021/07/05 01:45:24;;;;;;;10.38;3.17;;;15.20;99.90;;;;;;5034376;28;20025;-54
2021/07/05 01:47:50;;;;;;;12.25;3.08;;;15.20;99.90;;;;;;5032698;28;20413;-54
2021/07/05 01:50:17;;;;;;;9.25;3.05;;;15.20;99.90;;;;;;5034075;28;20108;-54
2021/07/05 01:52:43;;;;;;;8.75;3.58;;;15.20;99.90;;;;;;5033963;28;20104;-54
2021/07/05 01:55:09;;;;;;;8.23;2.90;;;15.30;99.90;;;;;;5032899;28;20478;-54
2021/07/05 01:57:36;;;;;;;9.10;2.78;;;15.20;99.90;;;;;;5033887;28;20364;-54
2021/07/05 02:00:12;;;;;;;6.22;3.22;;;15.20;99.90;;;;;;5032455;28;20025;-54
2021/07/05 02:02:37;;;;;;;10.55;3.47;;;15.10;99.90;;;;;;5033902;28;20105;-54
2021/07/05 02:05:09;;;;;;;7.93;2.85;;;15.20;99.90;;;;;;5032597;28;20526;-54
2021/07/05 02:07:35;;;;;;;13.38;3.67;;;15.20;99.90;;;;;;5032432;28;20064;-54
2021/07/05 02:10:00;;;;;;;9.35;3.42;;;15.20;99.90;;;;;;5033085;28;20061;-54
2021/07/05 02:12:26;;;;;;;15.95;3.78;;;15.20;99.90;;;;;;5033649;28;20030;-54
2021/07/05 02:14:52;;;;;;;15.00;4.00;;;15.20;99.90;;;;;;5033753;28;20037;-54
2021/07/05 02:17:18;;;;;;;14.82;4.07;;;15.20;99.90;;;;;;5033543;28;20018;-54
2021/07/05 02:19:43;;;;;;;9.73;4.00;;;15.20;99.90;;;;;;5033665;28;20021;-54
2021/07/05 02:22:09;;;;;;;10.70;4.07;;;15.10;99.90;;;;;;5033811;28;20502;-54
2021/07/05 02:24:36;;;;;;;14.10;3.97;;;15.10;99.90;;;;;;5033582;28;20056;-54
2021/07/05 02:27:02;;;;;;;9.93;3.88;;;15.20;99.90;;;;;;5033465;28;20068;-54
2021/07/05 02:29:28;;;;;;;12.63;3.90;;;15.20;99.90;;;;;;5033502;28;20529;-54
2021/07/05 02:31:54;;;;;;;8.20;3.85;;;15.20;99.90;;;;;;5033218;28;20124;-54
2021/07/05 02:34:19;;;;;;;17.02;4.40;;;15.20;99.90;;;;;;5031873;28;20545;-54
2021/07/05 02:36:45;;;;;;;11.57;4.20;;;15.20;99.90;;;;;;5033006;28;20072;-54
2021/07/05 02:39:11;;;;;;;10.27;3.55;;;15.30;99.90;;;;;;5033094;28;20033;-54
2021/07/05 02:41:36;;;;;;;10.60;3.95;;;15.30;99.90;;;;;;5033363;28;20219;-54
2021/07/05 02:44:03;;;;;;;6.82;3.80;;;15.20;99.90;;;;;;5033456;28;20017;-54
2021/07/05 02:46:28;;;;;;;10.68;3.90;;;15.10;99.90;;;;;;5031916;28;20037;-54
2021/07/05 02:48:55;;;;;;;10.45;4.05;;;15.10;99.90;;;;;;5031537;28;20029;-54
2021/07/05 02:51:21;;;;;;;11.13;3.97;;;15.00;99.90;;;;;;5033002;28;20025;-54
2021/07/05 02:53:46;;;;;;;9.38;3.75;;;15.00;99.90;;;;;;5033063;28;20037;-54
2021/07/05 02:56:12;;;;;;;18.77;4.13;;;15.10;99.90;;;;;;5033006;28;20029;-54
2021/07/05 02:58:37;;;;;;;11.93;3.42;;;15.10;99.90;;;;;;5032914;28;20107;-54
2021/07/05 03:01:07;;;;;;;12.20;4.22;;;15.00;99.90;;;;;;5032782;28;20033;-54
2021/07/05 03:03:34;;;;;;;12.82;3.83;;;15.10;99.90;;;;;;5032911;28;20028;-54
2021/07/05 03:05:59;;;;;;;9.32;3.40;;;15.00;99.90;;;;;;5031112;28;20040;-54
2021/07/05 03:08:25;;;;;;;10.98;3.67;;;15.00;99.90;;;;;;5032740;28;20430;-54
2021/07/05 03:10:51;;;;;;;17.33;4.50;;;15.10;99.90;;;;;;5032847;28;20029;-54
2021/07/05 03:13:18;;;;;;;9.32;3.50;;;15.10;99.90;;;;;;5032753;28;20030;-54
2021/07/05 03:15:45;;;;;;;14.45;3.67;;;15.10;99.90;;;;;;5032362;28;20028;-54
2021/07/05 03:18:11;;;;;;;11.82;3.50;;;15.10;99.90;;;;;;5032266;28;20114;-54
2021/07/05 03:20:41;;;;;;;10.13;3.90;;;15.10;99.90;;;;;;5031785;28;20423;-54
2021/07/05 03:23:08;;;;;;;9.05;3.65;;;15.10;99.90;;;;;;5032194;28;20148;-55
2021/07/05 03:25:35;;;;;;;9.13;3.78;;;15.10;99.90;;;;;;5032315;28;20361;-54
2021/07/05 03:28:04;;;;;;;12.55;3.85;;;15.10;99.90;;;;;;5030779;28;20055;-54
2021/07/05 03:30:31;;;;;;;5.72;3.58;;;15.10;99.90;;;;;;5032195;28;20056;-54
2021/07/05 03:32:57;;;;;;;9.27;3.80;;;15.00;99.90;;;;;;5030659;28;20115;-54
2021/07/05 03:35:23;;;;;;;11.80;3.78;;;15.00;99.90;;;;;;5032114;28;20276;-54
2021/07/05 03:37:51;;;;;;;9.90;4.22;;;14.90;99.90;;;;;;5032151;28;20052;-53
2021/07/05 03:40:23;;;;;;;6.32;3.55;;;14.90;99.90;;;;;;5032203;28;20029;-53
2021/07/05 03:42:49;;;;;;;11.00;4.18;;;14.90;99.90;;;;;;5032000;28;20025;-54
2021/07/05 03:45:18;;;;;;;8.75;4.57;;;14.80;99.90;;;;;;5032297;28;20124;-54
2021/07/05 03:47:45;;;;;;;9.60;4.18;;;14.80;99.90;;;;;;5031989;28;20402;-54
2021/07/05 03:50:12;;;;;;;11.27;4.45;;;14.80;99.90;;;;;;5032202;28;20551;-53
2021/07/05 03:52:38;;;;;;;8.95;4.65;;;14.80;99.90;;;;;;5032187;28;20321;-53
2021/07/05 03:55:06;;;;;;;11.98;5.20;;;14.80;99.90;;;;;;5032119;28;20030;-53
2021/07/05 03:57:33;;;;;;;10.65;4.55;;;14.80;99.90;;;;;;5031939;28;20474;-53
2021/07/05 03:59:58;;;;;;;10.98;4.82;;;14.80;99.90;;;;;;5031838;28;20018;-53
2021/07/05 04:02:24;;;;;;;12.38;5.22;;;14.80;99.90;;;;;;5031576;28;20022;-53
2021/07/05 04:04:51;;;;;;;10.43;4.57;;;14.80;99.90;;;;;;5031965;28;20022;-53
2021/07/05 04:07:18;;;;;;;13.48;4.57;;;14.80;99.90;;;;;;5031607;28;20026;-54
2021/07/05 04:09:44;;;;;;;14.80;4.78;;;14.80;99.90;;;;;;5031717;28;20033;-56
2021/07/05 04:12:11;;;;;;;12.27;4.82;;;14.80;99.90;;;;;;5031638;28;20418;-58
2021/07/05 04:14:39;;;;;;;10.45;4.65;;;14.80;99.90;;;;;;5031728;28;20044;-58
2021/07/05 04:17:05;;;;;;;7.88;4.88;;;14.70;99.90;;;;;;5030058;28;20021;-57
2021/07/05 04:19:31;;;;;;;12.73;5.07;;;14.70;99.90;;;;;;5031403;28;20025;-57
2021/07/05 04:21:57;;;;;;;9.73;5.05;;;14.70;99.90;;;;;;5031439;28;20033;-56
2021/07/05 04:24:23;;;;;;;12.45;5.75;;;14.70;99.90;;;;;;5031696;28;20022;-56
2021/07/05 04:26:49;;;;;;;13.13;5.22;;;14.70;99.90;;;;;;5031201;28;20021;-56
2021/07/05 04:29:14;;;;;;;10.77;5.78;;;14.70;99.90;;;;;;5031241;28;20046;-56
2021/07/05 04:31:40;;;;;;;12.30;4.72;;;14.70;99.90;;;;;;5030870;28;20406;-56
2021/07/05 04:34:06;;;;;;;12.88;5.13;;;14.70;99.90;;;;;;5031108;28;20052;-56
2021/07/05 04:36:31;;;;;;;11.18;5.15;;;14.70;99.90;;;;;;5031312;28;20369;-55
2021/07/05 04:38:57;;;;;;;6.05;4.68;;;14.70;99.90;;;;;;5031254;28;20104;-55
2021/07/05 04:41:22;;;;;;;14.82;5.75;;;14.70;99.90;;;;;;5029983;28;20022;-57
2021/07/05 04:43:48;;;;;;;9.50;4.95;;;14.80;99.90;;;;;;5031224;28;20049;-58
2021/07/05 04:46:16;;;;;;;9.05;4.60;;;14.80;99.90;;;;;;5031228;28;20022;-58
2021/07/05 04:48:42;;;;;;;10.52;5.10;;;14.80;99.90;;;;;;5030999;28;20633;-59
2021/07/05 04:51:10;;;;;;;13.70;5.00;;;14.80;99.90;;;;;;5030833;28;20060;-58
2021/07/05 04:53:36;;;;;;;13.00;4.93;;;14.80;99.90;;;;;;5031594;28;20056;-58
2021/07/05 04:56:02;;;;;;;10.55;5.05;;;14.80;99.90;;;;;;5031259;28;20033;-58
2021/07/05 04:58:28;;;;;;;9.63;4.78;;;14.90;99.90;;;;;;5030009;28;20378;-57
2021/07/05 05:00:54;;;;;;;8.38;4.20;;;14.90;99.90;;;;;;5031029;28;20366;-57
2021/07/05 05:03:19;;;;;;;9.38;4.70;;;15.00;99.90;;;;;;5031068;28;20075;-57
2021/07/05 05:05:45;;;;;;;10.70;4.50;;;15.00;99.90;;;;;;5030877;28;20087;-57
2021/07/05 05:08:12;;;;;;;7.50;4.13;;;15.10;99.90;;;;;;5029423;28;20041;-56
2021/07/05 05:10:39;;;;;;;12.68;4.43;;;15.10;99.90;;;;;;5030893;28;20482;-56
2021/07/05 05:13:06;;;;;;;10.45;4.22;;;15.10;99.90;;;;;;5030789;28;20386;-56
2021/07/05 05:15:32;;;;;;;11.75;4.30;;;15.10;99.90;;;;;;5030753;28;20034;-55
2021/07/05 05:17:58;;;;;;;6.95;4.15;;;15.10;99.90;;;;;;5031241;28;20111;-54
2021/07/05 05:20:24;;;;;;;8.65;4.60;;;15.10;99.90;;;;;;5030802;28;20057;-54
2021/07/05 05:22:50;;;;;;;13.73;4.65;;;15.10;99.90;;;;;;5029711;28;20442;-54
2021/07/05 05:25:17;;;;;;;10.98;4.75;;;15.10;99.90;;;;;;5031204;28;20029;-53
2021/07/05 05:27:44;;;;;;;10.45;4.75;;;15.10;99.90;;;;;;5030904;28;20026;-54
2021/07/05 05:30:11;;;;;;;8.18;4.47;;;15.20;99.90;;;;;;5030967;28;20080;-53
2021/07/05 05:32:37;;;;;;;13.60;4.28;;;15.30;99.90;;;;;;5030739;28;20057;-53
2021/07/05 05:35:05;;;;;;;7.35;3.75;;;15.20;99.90;;;;;;5030691;28;20044;-53
2021/07/05 05:37:31;;;;;;;13.55;4.70;;;15.20;99.90;;;;;;5029599;28;20112;-53
2021/07/05 05:39:57;;;;;;;8.45;4.45;;;15.30;99.90;;;;;;5030643;28;20282;-53
2021/07/05 05:42:22;;;;;;;9.63;4.43;;;15.30;99.90;;;;;;5029435;28;20056;-53
2021/07/05 05:44:48;;;;;;;9.40;4.25;;;15.30;99.90;;;;;;5032056;28;20025;-53
2021/07/05 05:47:14;;;;;;;12.73;4.43;;;15.30;99.90;;;;;;5034255;28;20049;-53
2021/07/05 05:49:40;;;;;;;11.38;4.43;;;15.30;99.90;;;;;;5034167;28;20036;-53
2021/07/05 05:52:06;;;;;;;9.45;4.22;;;15.30;99.90;;;;;;5034309;28;20021;-53
2021/07/05 05:54:32;;;;;;;9.73;4.63;;;15.30;99.90;;;;;;5034171;28;20128;-53
2021/07/05 05:56:58;;;;;;;8.98;4.45;;;15.30;99.90;;;;;;5033917;28;20044;-53
2021/07/05 05:59:23;;;;;;;11.50;4.15;;;15.20;99.90;;;;;;5032620;28;20120;-53
2021/07/05 06:01:50;;;;;;;16.73;4.47;;;15.20;99.90;;;;;;5033569;28;20101;-53
2021/07/05 06:04:17;;;;;;;9.70;4.70;;;15.20;99.90;;;;;;5034011;28;20101;-53
2021/07/05 06:06:42;;;;;;;10.93;4.53;;;15.20;99.90;;;;;;5032634;28;20044;-53
2021/07/05 06:09:08;;;;;;;15.32;5.40;;;15.20;99.90;;;;;;5033593;28;20032;-53
2021/07/05 06:11:35;;;;;;;9.73;4.80;;;15.30;99.90;;;;;;5033654;28;20466;-53
2021/07/05 06:14:01;;;;;;;9.88;4.57;;;15.30;99.90;;;;;;5033217;28;20033;-53
2021/07/05 06:16:28;;;;;;;14.25;5.00;;;15.30;99.90;;;;;;5033646;28;20036;-53
2021/07/05 06:18:53;;;;;;;8.52;4.72;;;15.30;99.90;;;;;;5032262;28;20021;-53
2021/07/05 06:21:20;;;;;;;7.93;4.40;;;15.40;99.90;;;;;;5032144;28;20020;-53
2021/07/05 06:23:46;;;;;;;8.45;4.30;;;15.40;99.90;;;;;;5031454;28;20048;-53
2021/07/05 06:26:12;;;;;;;8.73;4.43;;;15.40;99.90;;;;;;5031592;28;20124;-53
2021/07/05 06:28:40;;;;;;;9.18;4.70;;;15.50;99.90;;;;;;5033229;28;20029;-53
2021/07/05 06:31:05;;;;;;;8.02;3.92;;;15.50;99.90;;;;;;5031231;28;20098;-53
2021/07/05 06:33:31;;;;;;;6.40;3.97;;;15.50;99.90;;;;;;5046443;28;20136;-54
2021/07/05 06:35:57;;;;;;;11.10;4.60;;;15.50;99.90;;;;;;5035969;28;20033;-53
2021/07/05 06:38:23;;;;;;;10.02;4.40;;;15.50;99.90;;;;;;5032345;28;20025;-53
2021/07/05 06:40:51;;;;;;;11.50;4.65;;;15.50;99.90;;;;;;5032928;28;20053;-53
2021/07/05 06:43:17;;;;;;;10.52;5.47;;;15.50;99.90;;;;;;5032064;28;20032;-53
2021/07/05 06:45:43;;;;;;;8.10;4.82;;;15.50;99.90;;;;;;5028744;28;20521;-53
2021/07/05 06:48:09;;;;;;;16.63;5.88;;;15.40;99.90;;;;;;5027706;28;20060;-53
2021/07/05 06:50:36;;;;;;;13.25;5.88;;;15.40;99.90;;;;;;5031377;28;20029;-53
2021/07/05 06:53:02;;;;;;;15.10;5.78;;;15.40;99.90;;;;;;5028807;28;20543;-54
2021/07/05 06:55:28;;;;;;;13.50;5.75;;;15.50;99.90;;;;;;5029531;28;20028;-54
2021/07/05 06:57:53;;;;;;;13.20;5.85;;;15.50;99.90;;;;;;5041462;28;20401;-55
2021/07/05 07:00:23;;;;;;;17.67;6.85;;;15.50;99.90;;;;;;5051762;28;20029;-55
2021/07/05 07:02:49;;;;;;;15.50;5.57;;;15.60;99.90;;;;;;5032072;28;20025;-55
2021/07/05 07:05:17;;;;;;;15.00;6.25;;;15.60;99.90;;;;;;5031248;28;20044;-56
2021/07/05 07:07:45;;;;;;;19.30;7.22;;;15.60;99.90;;;;;;5032068;28;20025;-57
2021/07/05 07:10:13;;;;;;;15.85;7.10;;;15.60;99.90;;;;;;5031995;28;20108;-57
2021/07/05 07:12:39;;;;;;;13.00;5.90;;;15.50;99.90;;;;;;5031793;28;20033;-57
2021/07/05 07:15:07;;;;;;;13.63;6.18;;;15.50;99.90;;;;;;5026309;28;20112;-57
2021/07/05 07:17:40;;;;;;;17.25;7.03;;;15.40;99.90;;;;;;5029928;28;20079;-60
2021/07/05 07:20:08;;;;;;;;;;;15.50;99.90;;;;;;5029486;28;20033;-57
2021/07/05 07:22:34;;;;;;;14.80;6.15;;;15.60;99.90;;;;;;5031507;28;19909;-58
2021/07/05 07:25:00;;;;;;;14.80;5.97;;;15.60;99.90;;;;;;5031482;28;20155;-58
2021/07/05 07:27:26;;;;;;;15.93;5.72;;;15.60;99.90;;;;;;5027871;28;20108;-59
2021/07/05 07:29:52;;;;;;;24.13;6.20;;;15.60;99.90;;;;;;5020003;28;20129;-60
2021/07/05 07:32:17;;;;;;;16.85;5.15;;;15.60;99.90;;;;;;5025350;28;20053;-60
2021/07/05 07:34:44;;;;;;;16.77;5.70;;;15.60;99.90;;;;;;5028436;28;20461;-61
2021/07/05 07:37:10;;;;;;;13.32;4.65;;;15.50;99.90;;;;;;5024809;28;20478;-61
2021/07/05 07:39:41;;;;;;;12.30;4.30;;;15.40;99.90;;;;;;5010040;28;20040;-63
2021/07/05 07:42:07;;;;;;;6.85;3.85;;;15.30;99.90;;;;;;5020936;28;20458;-62
2021/07/05 07:44:36;;;;;;;10.43;4.50;;;15.40;99.90;;;;;;5021553;28;20033;-64
2021/07/05 07:47:04;;;;;;;9.98;4.25;;;15.30;99.90;;;;;;5021903;28;20025;-59
2021/07/05 07:49:31;;;;;;;8.00;4.20;;;15.30;99.90;;;;;;5017548;28;20029;-60
2021/07/05 07:52:04;;;;;;;7.20;4.03;;;15.30;99.90;;;;;;5015915;28;20084;-61
2021/07/05 07:54:30;;;;;;;8.05;4.05;;;15.30;99.90;;;;;;5023477;28;20056;-60
2021/07/05 07:56:56;;;;;;;7.45;3.92;;;15.40;99.90;;;;;;5019762;28;20037;-60
2021/07/05 07:59:22;;;;;;;7.53;3.70;;;15.50;99.90;;;;;;5021110;28;20487;-61
2021/07/05 08:01:48;;;;;;;9.00;3.75;;;15.50;99.90;;;;;;5019289;28;20036;-58
2021/07/05 08:04:14;;;;;;;9.07;4.40;;;15.50;99.90;;;;;;5020511;28;20445;-58
2021/07/05 08:06:39;;;;;;;9.80;4.07;;;15.60;99.90;;;;;;5015246;28;20044;-57
2021/07/05 08:09:07;;;;;;;8.57;3.50;;;15.60;99.90;;;;;;5023190;28;20395;-57
2021/07/05 08:11:34;;;;;;;7.57;3.67;;;15.60;99.90;;;;;;5021502;28;20112;-56
2021/07/05 08:14:02;;;;;;;9.13;3.65;;;15.60;99.90;;;;;;5023156;28;20036;-56
2021/07/05 08:16:29;;;;;;;7.32;3.63;;;15.90;99.90;;;;;;5019930;28;20039;-57
2021/07/05 08:18:55;;;;;;;7.75;3.38;;;16.00;99.90;;;;;;5020543;28;20080;-56
2021/07/05 08:21:21;;;;;;;7.90;4.45;;;16.30;99.90;;;;;;5022916;28;20654;-56
2021/07/05 08:23:48;;;;;;;6.18;3.20;;;16.60;99.90;;;;;;5019706;28;20068;-56
2021/07/05 08:26:14;;;;;;;4.07;2.60;;;16.80;99.90;;;;;;5015991;28;20402;-56
2021/07/05 08:28:40;;;;;;;8.60;2.80;;;17.20;99.90;;;;;;5016599;28;20036;-56
2021/07/05 08:31:07;;;;;;;5.88;2.05;;;17.50;99.90;;;;;;5018815;28;20022;-55
2021/07/05 08:33:34;;;;;;;5.43;1.98;;;17.50;99.90;;;;;;5020317;28;20041;-54
2021/07/05 08:36:01;;;;;;;5.28;2.33;;;17.50;99.90;;;;;;5021397;28;20025;-54
2021/07/05 08:38:27;;;;;;;5.75;2.50;;;17.50;99.90;;;;;;5025067;28;20022;-53
2021/07/05 08:40:56;;;;;;;6.10;2.45;;;17.30;99.90;;;;;;5023554;28;20455;-53
2021/07/05 08:43:27;;;;;;;8.13;2.55;;;17.30;99.90;;;;;;5016111;28;20563;-53
2021/07/05 08:46:02;;;;;;;5.80;2.05;;;17.60;99.90;;;;;;5016371;28;20033;-53
2021/07/05 08:48:39;;;;;;;4.88;2.65;;;17.90;99.90;;;;;;5021120;28;20487;-53
2021/07/05 08:51:07;;;;;;;5.45;2.33;;;18.20;99.90;;;;;;5016132;28;20044;-53
2021/07/05 08:53:33;;;;;;;6.60;2.50;;;18.30;99.90;;;;;;5016638;28;20026;-54
2021/07/05 08:55:59;;;;;;;3.67;2.30;;;18.20;99.90;;;;;;5025084;28;20038;-54
2021/07/05 08:58:25;;;;;;;5.10;2.47;;;18.40;99.90;;;;;;5023096;28;20060;-54
2021/07/05 09:00:51;;;;;;;7.35;2.72;;;18.90;99.90;;;;;;5021055;28;20371;-53
2021/07/05 09:03:24;;;;;;;5.07;2.42;;;19.10;99.90;;;;;;5022300;28;20084;-53
2021/07/05 09:06:11;;;;;;;6.68;3.00;;;18.90;99.90;;;;;;5016793;28;20040;-53
2021/07/05 09:08:38;;;;;;;5.70;2.70;;;18.80;99.90;;;;;;5023452;28;20040;-53
2021/07/05 09:11:07;;;;;;;6.90;2.33;;;18.80;99.90;;;;;;5021189;28;20041;-53
2021/07/05 09:13:43;;;;;;;6.20;2.38;;;19.00;99.90;;;;;;5019462;28;20030;-53
2021/07/05 09:16:09;;;;;;;6.78;2.33;;;19.10;99.90;;;;;;5017725;28;20045;-53
2021/07/05 09:18:44;;;;;;;7.68;2.22;;;19.20;99.90;;;;;;5028839;28;20485;-54
2021/07/05 09:21:14;;;;;;;4.82;1.90;;;19.30;99.90;;;;;;5020133;28;20287;-57
2021/07/05 09:23:45;;;;;;;4.90;2.03;;;19.40;99.90;;;;;;5024964;28;20398;-53
2021/07/05 09:26:22;;;;;;;5.72;1.70;;;19.40;99.90;;;;;;5025078;28;20473;-53
2021/07/05 09:28:50;;;;;;;7.47;2.40;;;19.60;99.90;;;;;;5022029;28;20095;-53
2021/07/05 09:31:31;;;;;;;6.63;1.85;;;19.90;99.90;;;;;;5023326;28;20475;-53
2021/07/05 09:33:56;;;;;;;5.93;2.13;;;19.70;99.90;;;;;;5022728;28;20516;-53
2021/07/05 09:36:24;;;;;;;5.72;2.33;;;19.80;99.90;;;;;;5023573;28;20037;-53
2021/07/05 09:38:50;;;;;;;6.45;1.92;;;19.60;99.90;;;;;;5024695;28;20061;-53
2021/07/05 09:41:17;;;;;;;8.80;2.13;;;19.40;99.90;;;;;;5024682;28;20509;-53
2021/07/05 09:43:44;;;;;;;4.20;1.98;;;19.30;99.90;;;;;;5028382;28;20109;-53
2021/07/05 09:46:12;;;;;;;7.13;2.00;;;19.20;99.90;;;;;;5020508;28;20091;-52
2021/07/05 09:48:46;;;;;;;3.63;1.88;;;19.40;99.90;;;;;;5024643;28;20272;-52
2021/07/05 09:51:18;;;;;;;6.05;1.92;;;19.50;99.90;;;;;;5025263;28;20033;-52
2021/07/05 09:53:44;;;;;;;4.13;1.85;;;19.40;99.90;;;;;;5031076;28;20033;-52
2021/07/05 09:56:17;;;;;;;3.85;2.00;;;19.30;99.90;;;;;;5029607;28;20041;-52
2021/07/05 09:58:43;;;;;;;;;;;19.10;99.90;;;;;;5043191;28;20027;-52
2021/07/05 10:01:08;;;;;;;5.25;2.45;;;19.10;99.90;;;;;;5033244;28;20437;-52
2021/07/05 10:03:36;;;;;;;8.18;2.53;;;19.00;99.90;;;;;;5026527;28;20367;-52
2021/07/05 10:06:17;;;;;;;5.35;2.00;;;18.90;99.90;;;;;;5026853;28;20391;-52
2021/07/05 10:08:43;;;;;;;5.60;2.58;;;19.00;99.90;;;;;;5031259;28;20402;-52
2021/07/05 10:11:09;;;;;;;5.95;2.63;;;18.90;99.90;;;;;;5031408;28;20029;-52
2021/07/05 10:13:34;;;;;;;5.85;2.20;;;18.80;99.90;;;;;;5038890;28;20033;-52
2021/07/05 10:16:07;;;;;;;7.25;2.10;;;18.90;99.90;;;;;;5031399;28;20372;-52
2021/07/05 10:18:34;;;;;;;5.50;1.60;;;19.50;99.90;;;;;;5016550;28;20033;-52
2021/07/05 10:21:00;;;;;;;4.88;1.65;;;20.30;99.90;;;;;;5027397;28;20025;-52
2021/07/05 10:23:25;;;;;;;6.97;2.00;;;20.20;99.90;;;;;;5030957;28;20498;-52
2021/07/05 10:25:52;;;;;;;6.25;2.08;;;19.90;99.90;;;;;;5029017;28;20026;-52
2021/07/05 10:28:18;;;;;;;6.63;2.10;;;19.80;99.90;;;;;;5032726;28;20122;-54
2021/07/05 10:30:45;;;;;;;5.22;2.03;;;19.80;99.90;;;;;;5031596;28;20026;-52
2021/07/05 10:33:11;;;;;;;3.65;2.10;;;19.60;99.90;;;;;;5031380;28;20053;-52
2021/07/05 10:35:44;;;;;;;9.38;2.10;;;19.80;99.90;;;;;;5031018;28;20083;-56
2021/07/05 10:38:35;;;;;;;4.38;1.80;;;20.30;99.90;;;;;;5012890;28;20026;-56
2021/07/05 10:41:12;;;;;;;7.45;1.98;;;21.10;99.90;;;;;;5019256;28;20069;-56
2021/07/05 10:43:53;;;;;;;4.47;1.70;;;21.50;99.90;;;;;;5032772;28;20062;-55
2021/07/05 10:46:48;;;;;;;2.78;1.30;;;21.60;99.90;;;;;;5042497;28;20399;-56
2021/07/05 10:49:29;;;;;;;6.35;1.38;;;22.20;99.90;;;;;;5032218;28;20034;-56
2021/07/05 10:52:01;;;;;;;4.30;1.42;;;21.80;99.90;;;;;;5032012;28;20072;-56
2021/07/05 10:54:52;;;;;;;5.72;1.50;;;21.10;99.90;;;;;;5031575;28;20060;-55
2021/07/05 10:57:46;;;;;;;5.80;1.80;;;20.90;99.90;;;;;;5030058;28;20025;-55
2021/07/05 11:00:23;;;;;;;5.97;1.80;;;20.70;99.90;;;;;;5030751;28;20129;-55
2021/07/05 11:02:50;;;;;;;4.63;1.92;;;20.40;99.90;;;;;;5030827;28;20455;-56
2021/07/05 11:05:31;;;;;;;6.63;2.00;;;20.10;99.90;;;;;;5029295;28;20025;-56
2021/07/05 11:08:36;;;;;;;3.92;2.00;;;19.60;99.90;;;;;;5028478;28;20029;-55
2021/07/05 11:11:22;;;;;;;5.07;2.70;;;19.30;99.90;;;;;;5023793;28;20036;-56
2021/07/05 11:14:15;;;;;;;4.80;2.63;;;18.90;99.90;;;;;;5029210;28;20723;-57
2021/07/05 11:16:52;;;;;;;4.53;2.50;;;18.70;99.90;;;;;;5021963;28;20100;-58
2021/07/05 11:19:42;;;;;;;4.40;2.58;;;18.50;99.90;;;;;;5017072;28;20022;-57
2021/07/05 11:22:26;;;;;;;4.75;2.80;;;18.40;99.90;;;;;;5030674;28;20061;-57
2021/07/05 11:25:16;;;;;;;4.53;2.47;;;18.60;99.90;;;;;;5029546;28;20033;-56
2021/07/05 11:27:46;;;;;;;3.72;2.45;;;19.10;99.90;;;;;;5025299;28;20392;-55
2021/07/05 11:30:15;;;;;;;7.28;3.03;;;19.60;99.90;;;;;;5028247;28;20112;-55
2021/07/05 11:32:48;;;;;;;3.65;2.10;;;20.10;99.90;;;;;;5029888;28;20490;-55
2021/07/05 11:35:50;;;;;;;9.40;2.30;;;20.70;99.90;;;;;;5031335;28;20033;-55
2021/07/05 11:38:24;;;;;;;3.75;2.00;;;21.20;99.90;;;;;;5002842;28;20034;-54
2021/07/05 11:40:54;;;;;;;3.35;1.65;;;21.00;99.90;;;;;;5020988;28;20395;-54
2021/07/05 11:44:13;;;;;;;8.23;3.60;;;20.50;99.90;;;;;;5030080;28;20030;-66
2021/07/05 11:46:39;;;;;;;6.13;3.22;;;19.90;99.90;;;;;;5030190;28;20100;-63
2021/07/05 11:49:22;;;;;;;4.88;3.17;;;19.30;99.90;;;;;;5030972;28;20609;-60
2021/07/05 11:51:56;;;;;;;3.15;2.72;;;19.10;99.90;;;;;;5030701;28;20025;-59
2021/07/05 11:54:31;;;;;;;4.85;2.50;;;19.00;99.90;;;;;;5030649;28;20068;-58
2021/07/05 11:56:59;;;;;;;3.22;2.60;;;19.00;99.90;;;;;;5026669;28;20033;-57
2021/07/05 11:59:27;;;;;;;5.15;2.78;;;19.30;99.90;;;;;;5031216;28;20017;-57
2021/07/05 12:02:14;;;;;;;2.83;2.35;;;19.60;99.90;;;;;;5030609;28;20405;-57
2021/07/05 12:04:42;;;;;;;3.53;2.30;;;20.30;99.90;;;;;;5025371;28;20022;-56
2021/07/05 12:07:13;;;;;;;3.45;2.35;;;21.20;99.90;;;;;;5022666;28;20522;-57
2021/07/05 12:09:40;;;;;;;6.00;2.40;;;21.80;99.90;;;;;;5023921;28;20021;-57
2021/07/05 12:12:12;;;;;;;3.53;2.20;;;22.90;99.90;;;;;;5026225;28;20373;-56
2021/07/05 12:14:38;;;;;;;3.70;1.80;;;24.30;99.90;;;;;;5029420;28;20025;-57
2021/07/05 12:17:06;;;;;;;2.45;1.70;;;24.90;99.90;;;;;;5030834;28;20359;-57
2021/07/05 12:19:34;;;;;;;2.70;1.60;;;24.90;99.90;;;;;;5028705;28;20025;-56
2021/07/05 12:22:03;;;;;;;2.85;1.50;;;25.60;99.90;;;;;;5028527;28;20401;-56
2021/07/05 12:24:30;;;;;;;2.78;1.80;;;26.40;99.90;;;;;;5029550;28;20026;-56
2021/07/05 12:27:05;;;;;;;6.32;1.50;;;27.60;99.90;;;;;;5028490;28;20116;-55
2021/07/05 12:29:40;;;;;;;2.10;1.30;;;27.80;99.90;;;;;;5028945;28;20076;-55
2021/07/05 12:32:14;;;;;;;7.97;1.73;;;28.60;99.90;;;;;;5027907;28;20490;-55
2021/07/05 12:34:54;;;;;;;3.38;1.20;;;29.10;99.90;;;;;;5027666;28;20536;-55
2021/07/05 12:37:22;;;;;;;28.52;2.67;;;29.60;99.90;;;;;;5028788;28;20112;-54
2021/07/05 12:39:59;;;;;;;5.45;1.70;;;29.20;99.90;;;;;;5027810;28;20113;-55
2021/07/05 12:42:35;;;;;;;7.75;1.80;;;28.50;99.50;;;;;;5023771;28;20033;-55
2021/07/05 12:45:08;;;;;;;3.38;1.60;;;26.60;99.90;;;;;;5029626;28;20084;-55
2021/07/05 12:47:49;;;;;;;5.47;2.28;;;25.50;99.90;;;;;;5022594;28;20041;-55
2021/07/05 12:50:34;;;;;;;5.07;2.15;;;24.50;99.90;;;;;;5027556;28;20071;-55
2021/07/05 12:53:12;;;;;;;4.68;1.88;;;24.00;99.90;;;;;;5031379;28;20482;-55